sensor_id;sensor_type;location;lat;lon;timestamp;temperature;humidity
981;DHT22;479;53.514;9.994;2022-10-15T00:01:11;14.20;99.90
981;DHT22;479;53.514;9.994;2022-10-15T00:03:39;14.30;99.90
981;DHT22;479;53.514;9.994;2022-10-15T00:06:09;14.30;99.90
981;DHT22;479;53.514;9.994;2022-10-15T00:08:38;14.40;99.90
981;DHT22;479;53.514;9.994;2022-10-15T00:11:07;14.40;99.90
981;DHT22;479;53.514;9.994;2022-10-15T00:13:35;14.40;99.90
981;DHT22;479;53.514;9.994;2022-10-15T00:16:03;14.30;99.90
981;DHT22;479;53.514;9.994;2022-10-15T00:18:29;14.30;99.90
981;DHT22;479;53.514;9.994;2022-10-15T00:20:57;14.40;99.90
981;DHT22;479;53.514;9.994;2022-10-15T00:23:23;14.40;99.90
981;DHT22;479;53.514;9.994;2022-10-15T00:26:01;14.40;99.90
981;DHT22;479;53.514;9.994;2022-10-15T00:28:28;14.30;99.90
981;DHT22;479;53.514;9.994;2022-10-15T00:30:59;14.40;99.90
981;DHT22;479;53.514;9.994;2022-10-15T00:33:26;14.40;99.90
981;DHT22;479;53.514;9.994;2022-10-15T00:36:01;14.40;99.90
981;DHT22;479;53.514;9.994;2022-10-15T00:38:28;14.40;99.90
981;DHT22;479;53.514;9.994;2022-10-15T00:40:56;14.40;99.90
981;DHT22;479;53.514;9.994;2022-10-15T00:43:41;14.40;99.90
981;DHT22;479;53.514;9.994;2022-10-15T00:46:17;14.40;99.90
981;DHT22;479;53.514;9.994;2022-10-15T00:48:47;14.40;99.90
981;DHT22;479;53.514;9.994;2022-10-15T00:51:17;14.40;99.90
981;DHT22;479;53.514;9.994;2022-10-15T00:53:45;14.40;99.90
981;DHT22;479;53.514;9.994;2022-10-15T00:56:14;14.40;99.90
981;DHT22;479;53.514;9.994;2022-10-15T00:58:43;14.40;99.90
981;DHT22;479;53.514;9.994;2022-10-15T01:01:10;14.50;99.90
981;DHT22;479;53.514;9.994;2022-10-15T01:03:37;14.50;99.90
981;DHT22;479;53.514;9.994;2022-10-15T01:06:04;14.50;99.90
981;DHT22;479;53.514;9.994;2022-10-15T01:08:32;14.50;99.90
981;DHT22;479;53.514;9.994;2022-10-15T01:11:06;14.50;99.90
981;DHT22;479;53.514;9.994;2022-10-15T01:13:38;14.50;99.90
981;DHT22;479;53.514;9.994;2022-10-15T01:16:17;14.50;99.90
981;DHT22;479;53.514;9.994;2022-10-15T01:18:47;14.50;99.90
981;DHT22;479;53.514;9.994;2022-10-15T01:21:21;14.40;99.90
981;DHT22;479;53.514;9.994;2022-10-15T01:33:03;14.40;99.90
981;DHT22;479;53.514;9.994;2022-10-15T01:35:40;14.40;99.90
981;DHT22;479;53.514;9.994;2022-10-15T01:38:19;14.40;99.90
981;DHT22;479;53.514;9.994;2022-10-15T01:40:52;14.30;99.90
981;DHT22;479;53.514;9.994;2022-10-15T01:43:29;14.30;99.90
981;DHT22;479;53.514;9.994;2022-10-15T01:46:22;14.30;99.90
981;DHT22;479;53.514;9.994;2022-10-15T01:49:02;14.30;99.90
981;DHT22;479;53.514;9.994;2022-10-15T01:51:32;14.20;99.90
981;DHT22;479;53.514;9.994;2022-10-15T01:54:01;14.20;99.90
981;DHT22;479;53.514;9.994;2022-10-15T01:56:31;14.10;99.90
981;DHT22;479;53.514;9.994;2022-10-15T01:59:01;14.10;99.90
981;DHT22;479;53.514;9.994;2022-10-15T02:01:30;14.10;99.90
981;DHT22;479;53.514;9.994;2022-10-15T02:03:57;14.10;99.90
981;DHT22;479;53.514;9.994;2022-10-15T02:06:36;14.10;99.90
981;DHT22;479;53.514;9.994;2022-10-15T02:09:12;14.00;99.90
981;DHT22;479;53.514;9.994;2022-10-15T02:11:50;14.00;99.90
981;DHT22;479;53.514;9.994;2022-10-15T02:14:26;14.00;99.90
981;DHT22;479;53.514;9.994;2022-10-15T02:17:02;14.00;99.90
981;DHT22;479;53.514;9.994;2022-10-15T02:19:37;14.00;99.90
981;DHT22;479;53.514;9.994;2022-10-15T02:22:10;14.00;99.90
981;DHT22;479;53.514;9.994;2022-10-15T02:24:42;14.00;99.90
981;DHT22;479;53.514;9.994;2022-10-15T02:27:11;14.00;99.90
981;DHT22;479;53.514;9.994;2022-10-15T02:29:40;13.90;99.90
981;DHT22;479;53.514;9.994;2022-10-15T02:32:08;13.90;99.90
981;DHT22;479;53.514;9.994;2022-10-15T02:34:38;13.90;99.90
981;DHT22;479;53.514;9.994;2022-10-15T02:37:08;13.90;99.90
981;DHT22;479;53.514;9.994;2022-10-15T02:39:35;13.80;99.90
981;DHT22;479;53.514;9.994;2022-10-15T02:42:02;13.90;99.90
981;DHT22;479;53.514;9.994;2022-10-15T02:44:31;13.90;99.90
981;DHT22;479;53.514;9.994;2022-10-15T02:46:58;13.80;99.90
981;DHT22;479;53.514;9.994;2022-10-15T02:49:25;13.80;99.90
981;DHT22;479;53.514;9.994;2022-10-15T02:51:52;13.80;99.90
981;DHT22;479;53.514;9.994;2022-10-15T02:54:21;13.90;99.90
981;DHT22;479;53.514;9.994;2022-10-15T02:56:48;13.90;99.90
981;DHT22;479;53.514;9.994;2022-10-15T02:59:17;13.90;99.90
981;DHT22;479;53.514;9.994;2022-10-15T03:01:45;13.90;99.90
981;DHT22;479;53.514;9.994;2022-10-15T03:04:13;13.90;99.90
981;DHT22;479;53.514;9.994;2022-10-15T03:06:40;13.90;99.90
981;DHT22;479;53.514;9.994;2022-10-15T03:09:07;13.90;99.90
981;DHT22;479;53.514;9.994;2022-10-15T03:11:36;13.80;99.90
981;DHT22;479;53.514;9.994;2022-10-15T03:14:05;13.80;99.90
981;DHT22;479;53.514;9.994;2022-10-15T03:16:33;13.80;99.90
981;DHT22;479;53.514;9.994;2022-10-15T03:19:00;13.70;99.90
981;DHT22;479;53.514;9.994;2022-10-15T03:21:27;13.70;99.90
981;DHT22;479;53.514;9.994;2022-10-15T03:24:00;13.60;99.90
981;DHT22;479;53.514;9.994;2022-10-15T03:26:27;13.60;99.90
981;DHT22;479;53.514;9.994;2022-10-15T03:28:55;13.50;99.90
981;DHT22;479;53.514;9.994;2022-10-15T03:31:34;13.60;99.90
981;DHT22;479;53.514;9.994;2022-10-15T03:34:02;13.60;99.90
981;DHT22;479;53.514;9.994;2022-10-15T03:36:30;13.60;99.90
981;DHT22;479;53.514;9.994;2022-10-15T03:38:57;13.50;99.90
981;DHT22;479;53.514;9.994;2022-10-15T03:41:24;13.40;99.90
981;DHT22;479;53.514;9.994;2022-10-15T03:43:51;13.40;99.90
981;DHT22;479;53.514;9.994;2022-10-15T03:46:20;13.40;99.90
981;DHT22;479;53.514;9.994;2022-10-15T03:48:49;13.40;99.90
981;DHT22;479;53.514;9.994;2022-10-15T03:51:16;13.40;99.90
981;DHT22;479;53.514;9.994;2022-10-15T03:53:44;13.40;99.90
981;DHT22;479;53.514;9.994;2022-10-15T03:56:11;13.40;99.90
981;DHT22;479;53.514;9.994;2022-10-15T03:58:39;13.40;99.90
981;DHT22;479;53.514;9.994;2022-10-15T04:01:14;13.40;99.90
981;DHT22;479;53.514;9.994;2022-10-15T04:03:43;13.40;99.90
981;DHT22;479;53.514;9.994;2022-10-15T04:06:10;13.40;99.90
981;DHT22;479;53.514;9.994;2022-10-15T04:08:38;13.40;99.90
981;DHT22;479;53.514;9.994;2022-10-15T04:11:19;13.30;99.90
981;DHT22;479;53.514;9.994;2022-10-15T04:13:54;13.40;99.90
981;DHT22;479;53.514;9.994;2022-10-15T04:16:20;13.40;99.90
981;DHT22;479;53.514;9.994;2022-10-15T04:18:49;13.40;99.90
981;DHT22;479;53.514;9.994;2022-10-15T04:21:16;13.40;99.90
981;DHT22;479;53.514;9.994;2022-10-15T04:23:48;13.40;99.90
981;DHT22;479;53.514;9.994;2022-10-15T04:26:21;13.40;99.90
981;DHT22;479;53.514;9.994;2022-10-15T04:28:49;13.40;99.90
981;DHT22;479;53.514;9.994;2022-10-15T04:31:18;13.50;99.90
981;DHT22;479;53.514;9.994;2022-10-15T04:33:48;13.40;99.90
981;DHT22;479;53.514;9.994;2022-10-15T04:36:16;13.40;99.90
981;DHT22;479;53.514;9.994;2022-10-15T04:38:48;13.40;99.90
981;DHT22;479;53.514;9.994;2022-10-15T04:41:23;13.30;99.90
981;DHT22;479;53.514;9.994;2022-10-15T04:43:57;13.30;99.90
981;DHT22;479;53.514;9.994;2022-10-15T04:46:25;13.30;99.90
981;DHT22;479;53.514;9.994;2022-10-15T04:48:53;13.30;99.90
981;DHT22;479;53.514;9.994;2022-10-15T04:51:24;13.30;99.90
981;DHT22;479;53.514;9.994;2022-10-15T04:53:59;13.30;99.90
981;DHT22;479;53.514;9.994;2022-10-15T04:56:28;13.30;99.90
981;DHT22;479;53.514;9.994;2022-10-15T04:58:55;13.30;99.90
981;DHT22;479;53.514;9.994;2022-10-15T05:01:25;13.30;99.90
981;DHT22;479;53.514;9.994;2022-10-15T05:04:01;13.30;99.90
981;DHT22;479;53.514;9.994;2022-10-15T05:06:31;13.30;99.90
981;DHT22;479;53.514;9.994;2022-10-15T05:09:09;13.20;99.90
981;DHT22;479;53.514;9.994;2022-10-15T05:11:36;13.30;99.90
981;DHT22;479;53.514;9.994;2022-10-15T05:14:10;13.20;99.90
981;DHT22;479;53.514;9.994;2022-10-15T05:16:37;13.20;99.90
981;DHT22;479;53.514;9.994;2022-10-15T05:19:07;13.20;99.90
981;DHT22;479;53.514;9.994;2022-10-15T05:21:36;13.20;99.90
981;DHT22;479;53.514;9.994;2022-10-15T05:24:11;13.20;99.90
981;DHT22;479;53.514;9.994;2022-10-15T05:26:52;13.20;99.90
981;DHT22;479;53.514;9.994;2022-10-15T05:29:21;13.20;99.90
981;DHT22;479;53.514;9.994;2022-10-15T05:31:49;13.20;99.90
981;DHT22;479;53.514;9.994;2022-10-15T05:34:21;13.10;99.90
981;DHT22;479;53.514;9.994;2022-10-15T05:36:58;13.20;99.90
981;DHT22;479;53.514;9.994;2022-10-15T05:39:25;13.10;99.90
981;DHT22;479;53.514;9.994;2022-10-15T05:41:53;13.10;99.90
981;DHT22;479;53.514;9.994;2022-10-15T05:44:30;13.00;99.90
981;DHT22;479;53.514;9.994;2022-10-15T05:46:58;13.10;99.90
981;DHT22;479;53.514;9.994;2022-10-15T05:49:27;13.10;99.90
981;DHT22;479;53.514;9.994;2022-10-15T05:52:07;13.10;99.90
981;DHT22;479;53.514;9.994;2022-10-15T05:54:59;13.10;99.90
981;DHT22;479;53.514;9.994;2022-10-15T05:57:26;13.10;99.90
981;DHT22;479;53.514;9.994;2022-10-15T05:59:53;13.10;99.90
981;DHT22;479;53.514;9.994;2022-10-15T06:02:22;13.10;99.90
981;DHT22;479;53.514;9.994;2022-10-15T06:09:37;13.00;99.90
981;DHT22;479;53.514;9.994;2022-10-15T06:11:59;13.10;99.90
981;DHT22;479;53.514;9.994;2022-10-15T06:14:32;13.10;99.90
981;DHT22;479;53.514;9.994;2022-10-15T06:17:06;13.10;99.90
981;DHT22;479;53.514;9.994;2022-10-15T06:19:54;13.20;99.90
981;DHT22;479;53.514;9.994;2022-10-15T06:22:32;13.10;99.90
981;DHT22;479;53.514;9.994;2022-10-15T06:25:21;13.20;99.90
981;DHT22;479;53.514;9.994;2022-10-15T06:31:10;13.10;99.90
981;DHT22;479;53.514;9.994;2022-10-15T06:33:41;13.20;99.90
981;DHT22;479;53.514;9.994;2022-10-15T06:36:23;13.20;99.90
981;DHT22;479;53.514;9.994;2022-10-15T06:39:05;13.10;99.90
981;DHT22;479;53.514;9.994;2022-10-15T06:41:39;13.10;99.90
981;DHT22;479;53.514;9.994;2022-10-15T06:44:40;13.20;99.90
981;DHT22;479;53.514;9.994;2022-10-15T06:47:08;13.20;99.90
981;DHT22;479;53.514;9.994;2022-10-15T06:49:47;13.20;99.90
981;DHT22;479;53.514;9.994;2022-10-15T06:52:32;13.30;99.90
981;DHT22;479;53.514;9.994;2022-10-15T06:55:39;13.30;99.90
981;DHT22;479;53.514;9.994;2022-10-15T06:59:14;13.20;99.90
981;DHT22;479;53.514;9.994;2022-10-15T07:01:44;13.30;99.90
981;DHT22;479;53.514;9.994;2022-10-15T07:04:26;13.40;99.90
981;DHT22;479;53.514;9.994;2022-10-15T07:07:20;13.40;99.90
981;DHT22;479;53.514;9.994;2022-10-15T07:10:00;13.50;99.90
981;DHT22;479;53.514;9.994;2022-10-15T07:12:40;13.40;99.90
981;DHT22;479;53.514;9.994;2022-10-15T07:15:42;13.50;99.90
981;DHT22;479;53.514;9.994;2022-10-15T07:18:17;13.50;99.90
981;DHT22;479;53.514;9.994;2022-10-15T07:20:45;13.50;99.90
981;DHT22;479;53.514;9.994;2022-10-15T07:23:16;13.50;99.90
981;DHT22;479;53.514;9.994;2022-10-15T07:25:43;13.50;99.90
981;DHT22;479;53.514;9.994;2022-10-15T07:28:18;13.50;99.90
981;DHT22;479;53.514;9.994;2022-10-15T07:30:59;13.40;99.90
981;DHT22;479;53.514;9.994;2022-10-15T07:33:44;13.40;99.90
981;DHT22;479;53.514;9.994;2022-10-15T07:36:20;13.50;99.90
981;DHT22;479;53.514;9.994;2022-10-15T07:38:50;13.60;99.90
981;DHT22;479;53.514;9.994;2022-10-15T07:41:20;13.50;99.90
981;DHT22;479;53.514;9.994;2022-10-15T07:43:52;13.60;99.90
981;DHT22;479;53.514;9.994;2022-10-15T07:46:23;13.70;99.90
981;DHT22;479;53.514;9.994;2022-10-15T07:48:54;13.60;99.90
981;DHT22;479;53.514;9.994;2022-10-15T07:51:21;13.60;99.90
981;DHT22;479;53.514;9.994;2022-10-15T07:53:48;13.70;99.90
981;DHT22;479;53.514;9.994;2022-10-15T07:56:22;13.70;99.90
981;DHT22;479;53.514;9.994;2022-10-15T07:59:12;13.80;99.90
981;DHT22;479;53.514;9.994;2022-10-15T08:01:46;13.90;99.90
981;DHT22;479;53.514;9.994;2022-10-15T08:04:16;13.90;99.90
981;DHT22;479;53.514;9.994;2022-10-15T08:07:04;14.00;99.90
981;DHT22;479;53.514;9.994;2022-10-15T08:09:37;14.10;99.90
981;DHT22;479;53.514;9.994;2022-10-15T08:12:06;14.20;99.90
981;DHT22;479;53.514;9.994;2022-10-15T08:14:40;14.30;99.90
981;DHT22;479;53.514;9.994;2022-10-15T08:17:22;14.50;99.90
981;DHT22;479;53.514;9.994;2022-10-15T08:20:26;15.00;99.90
981;DHT22;479;53.514;9.994;2022-10-15T08:23:14;15.60;99.90
981;DHT22;479;53.514;9.994;2022-10-15T08:26:04;16.40;99.90
981;DHT22;479;53.514;9.994;2022-10-15T08:31:46;15.80;99.90
981;DHT22;479;53.514;9.994;2022-10-15T08:34:30;15.60;99.90
981;DHT22;479;53.514;9.994;2022-10-15T08:37:09;15.50;99.90
981;DHT22;479;53.514;9.994;2022-10-15T08:39:50;15.60;99.90
981;DHT22;479;53.514;9.994;2022-10-15T08:42:32;16.00;99.90
981;DHT22;479;53.514;9.994;2022-10-15T08:45:11;16.00;99.90
981;DHT22;479;53.514;9.994;2022-10-15T08:47:46;15.50;99.90
981;DHT22;479;53.514;9.994;2022-10-15T08:50:26;15.80;99.90
981;DHT22;479;53.514;9.994;2022-10-15T08:52:56;16.30;99.90
981;DHT22;479;53.514;9.994;2022-10-15T08:55:28;16.60;99.90
981;DHT22;479;53.514;9.994;2022-10-15T08:58:02;16.50;99.90
981;DHT22;479;53.514;9.994;2022-10-15T09:00:42;16.70;99.90
981;DHT22;479;53.514;9.994;2022-10-15T09:04:30;16.90;99.90
981;DHT22;479;53.514;9.994;2022-10-15T09:06:41;16.60;99.90
981;DHT22;479;53.514;9.994;2022-10-15T09:09:17;16.60;99.90
981;DHT22;479;53.514;9.994;2022-10-15T09:15:19;16.80;99.90
981;DHT22;479;53.514;9.994;2022-10-15T09:17:57;17.20;99.90
981;DHT22;479;53.514;9.994;2022-10-15T09:20:36;18.10;99.90
981;DHT22;479;53.514;9.994;2022-10-15T09:23:18;18.50;99.90
981;DHT22;479;53.514;9.994;2022-10-15T09:25:50;18.50;99.90
981;DHT22;479;53.514;9.994;2022-10-15T09:28:24;18.60;99.90
981;DHT22;479;53.514;9.994;2022-10-15T09:30:55;18.50;99.90
981;DHT22;479;53.514;9.994;2022-10-15T09:33:36;18.50;99.90
981;DHT22;479;53.514;9.994;2022-10-15T09:36:17;18.70;99.90
981;DHT22;479;53.514;9.994;2022-10-15T09:39:00;18.80;99.90
981;DHT22;479;53.514;9.994;2022-10-15T09:41:38;18.50;99.90
981;DHT22;479;53.514;9.994;2022-10-15T09:44:13;18.40;99.90
981;DHT22;479;53.514;9.994;2022-10-15T09:46:48;18.70;99.90
981;DHT22;479;53.514;9.994;2022-10-15T09:49:16;18.80;99.90
981;DHT22;479;53.514;9.994;2022-10-15T09:51:56;19.30;99.90
981;DHT22;479;53.514;9.994;2022-10-15T09:54:33;19.30;99.90
981;DHT22;479;53.514;9.994;2022-10-15T09:57:13;19.30;99.90
981;DHT22;479;53.514;9.994;2022-10-15T09:59:51;19.40;99.90
981;DHT22;479;53.514;9.994;2022-10-15T10:02:23;19.40;99.90
981;DHT22;479;53.514;9.994;2022-10-15T10:04:51;18.90;99.90
981;DHT22;479;53.514;9.994;2022-10-15T10:07:35;18.80;99.90
981;DHT22;479;53.514;9.994;2022-10-15T10:10:19;19.10;99.90
981;DHT22;479;53.514;9.994;2022-10-15T10:12:47;19.00;99.90
981;DHT22;479;53.514;9.994;2022-10-15T10:15:30;19.40;99.90
981;DHT22;479;53.514;9.994;2022-10-15T10:18:03;19.60;99.90
981;DHT22;479;53.514;9.994;2022-10-15T10:20:34;19.90;99.90
981;DHT22;479;53.514;9.994;2022-10-15T10:23:02;19.90;99.90
981;DHT22;479;53.514;9.994;2022-10-15T10:25:48;19.90;99.90
981;DHT22;479;53.514;9.994;2022-10-15T10:28:18;20.10;99.90
981;DHT22;479;53.514;9.994;2022-10-15T10:34:05;20.50;99.90
981;DHT22;479;53.514;9.994;2022-10-15T10:37:15;20.80;99.90
981;DHT22;479;53.514;9.994;2022-10-15T10:39:51;20.40;99.90
981;DHT22;479;53.514;9.994;2022-10-15T10:42:31;20.40;99.90
981;DHT22;479;53.514;9.994;2022-10-15T10:45:18;20.50;99.90
981;DHT22;479;53.514;9.994;2022-10-15T10:47:51;20.80;99.90
981;DHT22;479;53.514;9.994;2022-10-15T10:50:28;19.90;99.90
981;DHT22;479;53.514;9.994;2022-10-15T10:52:57;18.90;99.90
981;DHT22;479;53.514;9.994;2022-10-15T10:55:33;18.60;99.90
981;DHT22;479;53.514;9.994;2022-10-15T10:58:09;18.40;99.90
981;DHT22;479;53.514;9.994;2022-10-15T11:00:42;18.40;99.90
981;DHT22;479;53.514;9.994;2022-10-15T11:03:20;18.20;99.90
981;DHT22;479;53.514;9.994;2022-10-15T11:06:03;18.10;99.90
981;DHT22;479;53.514;9.994;2022-10-15T11:08:47;18.20;99.90
981;DHT22;479;53.514;9.994;2022-10-15T11:11:22;18.30;99.90
981;DHT22;479;53.514;9.994;2022-10-15T11:14:07;18.40;99.90
981;DHT22;479;53.514;9.994;2022-10-15T11:16:52;18.60;99.90
981;DHT22;479;53.514;9.994;2022-10-15T11:19:28;18.40;99.90
981;DHT22;479;53.514;9.994;2022-10-15T11:22:12;18.60;99.90
981;DHT22;479;53.514;9.994;2022-10-15T11:24:50;18.80;99.90
981;DHT22;479;53.514;9.994;2022-10-15T11:27:33;19.00;99.90
981;DHT22;479;53.514;9.994;2022-10-15T11:30:09;19.00;99.90
981;DHT22;479;53.514;9.994;2022-10-15T11:32:51;19.20;99.90
981;DHT22;479;53.514;9.994;2022-10-15T11:35:32;19.30;99.90
981;DHT22;479;53.514;9.994;2022-10-15T11:38:11;19.20;99.90
981;DHT22;479;53.514;9.994;2022-10-15T11:40:51;19.10;99.90
981;DHT22;479;53.514;9.994;2022-10-15T11:43:38;19.00;99.90
981;DHT22;479;53.514;9.994;2022-10-15T11:46:16;18.80;99.90
981;DHT22;479;53.514;9.994;2022-10-15T11:48:54;18.80;99.90
981;DHT22;479;53.514;9.994;2022-10-15T11:51:30;18.90;99.90
981;DHT22;479;53.514;9.994;2022-10-15T11:54:20;18.80;99.90
981;DHT22;479;53.514;9.994;2022-10-15T11:56:51;18.60;99.90
981;DHT22;479;53.514;9.994;2022-10-15T11:59:29;18.60;99.90
981;DHT22;479;53.514;9.994;2022-10-15T12:02:04;18.40;99.90
981;DHT22;479;53.514;9.994;2022-10-15T12:04:37;18.50;99.90
981;DHT22;479;53.514;9.994;2022-10-15T12:07:06;18.60;99.90
981;DHT22;479;53.514;9.994;2022-10-15T12:09:41;18.60;99.90
981;DHT22;479;53.514;9.994;2022-10-15T12:12:16;18.70;99.90
981;DHT22;479;53.514;9.994;2022-10-15T12:14:51;18.90;99.90
981;DHT22;479;53.514;9.994;2022-10-15T12:17:28;19.00;99.90
981;DHT22;479;53.514;9.994;2022-10-15T12:20:00;19.20;99.90
981;DHT22;479;53.514;9.994;2022-10-15T12:22:34;19.30;99.90
981;DHT22;479;53.514;9.994;2022-10-15T12:25:03;19.30;99.90
981;DHT22;479;53.514;9.994;2022-10-15T12:27:33;19.20;99.90
981;DHT22;479;53.514;9.994;2022-10-15T12:30:17;19.00;99.90
981;DHT22;479;53.514;9.994;2022-10-15T12:32:49;19.00;99.90
981;DHT22;479;53.514;9.994;2022-10-15T12:35:33;18.90;99.90
981;DHT22;479;53.514;9.994;2022-10-15T12:38:18;18.60;99.90
981;DHT22;479;53.514;9.994;2022-10-15T12:40:55;18.60;99.90
981;DHT22;479;53.514;9.994;2022-10-15T12:43:22;18.60;99.90
981;DHT22;479;53.514;9.994;2022-10-15T12:45:51;18.50;99.90
981;DHT22;479;53.514;9.994;2022-10-15T12:48:28;18.50;99.90
981;DHT22;479;53.514;9.994;2022-10-15T12:54:33;18.30;99.90
981;DHT22;479;53.514;9.994;2022-10-15T12:57:01;18.20;99.90
981;DHT22;479;53.514;9.994;2022-10-15T12:59:54;18.20;99.90
981;DHT22;479;53.514;9.994;2022-10-15T13:02:36;18.00;99.90
981;DHT22;479;53.514;9.994;2022-10-15T13:05:22;18.00;99.90
981;DHT22;479;53.514;9.994;2022-10-15T13:07:51;18.00;99.90
981;DHT22;479;53.514;9.994;2022-10-15T13:10:23;18.00;99.90
981;DHT22;479;53.514;9.994;2022-10-15T13:12:59;18.10;99.90
981;DHT22;479;53.514;9.994;2022-10-15T13:15:28;18.20;99.90
981;DHT22;479;53.514;9.994;2022-10-15T13:17:57;18.20;99.90
981;DHT22;479;53.514;9.994;2022-10-15T13:20:33;18.20;99.90
981;DHT22;479;53.514;9.994;2022-10-15T13:23:09;18.10;99.90
981;DHT22;479;53.514;9.994;2022-10-15T13:25:36;18.00;99.90
981;DHT22;479;53.514;9.994;2022-10-15T13:28:25;18.00;99.90
981;DHT22;479;53.514;9.994;2022-10-15T13:30:52;17.90;99.90
981;DHT22;479;53.514;9.994;2022-10-15T13:33:19;17.90;99.90
981;DHT22;479;53.514;9.994;2022-10-15T13:35:48;17.90;99.90
981;DHT22;479;53.514;9.994;2022-10-15T13:38:20;17.90;99.90
981;DHT22;479;53.514;9.994;2022-10-15T13:40:49;17.90;99.90
981;DHT22;479;53.514;9.994;2022-10-15T13:43:17;17.90;99.90
981;DHT22;479;53.514;9.994;2022-10-15T13:45:46;17.90;99.90
981;DHT22;479;53.514;9.994;2022-10-15T13:48:18;18.00;99.90
981;DHT22;479;53.514;9.994;2022-10-15T13:50:49;18.10;99.90
981;DHT22;479;53.514;9.994;2022-10-15T13:53:22;18.20;99.90
981;DHT22;479;53.514;9.994;2022-10-15T13:55:53;18.30;99.90
981;DHT22;479;53.514;9.994;2022-10-15T13:58:23;18.30;99.90
981;DHT22;479;53.514;9.994;2022-10-15T14:00:55;18.30;99.90
981;DHT22;479;53.514;9.994;2022-10-15T14:03:23;18.20;99.90
981;DHT22;479;53.514;9.994;2022-10-15T14:05:53;18.20;99.90
981;DHT22;479;53.514;9.994;2022-10-15T14:08:26;18.10;99.90
981;DHT22;479;53.514;9.994;2022-10-15T14:10:55;18.00;99.90
981;DHT22;479;53.514;9.994;2022-10-15T14:13:23;17.90;99.90
981;DHT22;479;53.514;9.994;2022-10-15T14:15:57;17.90;99.90
981;DHT22;479;53.514;9.994;2022-10-15T14:18:33;17.90;99.90
981;DHT22;479;53.514;9.994;2022-10-15T14:21:08;17.90;99.90
981;DHT22;479;53.514;9.994;2022-10-15T14:23:35;17.90;99.90
981;DHT22;479;53.514;9.994;2022-10-15T14:26:03;18.00;99.90
981;DHT22;479;53.514;9.994;2022-10-15T14:28:31;17.90;99.90
981;DHT22;479;53.514;9.994;2022-10-15T14:31:00;17.70;99.90
981;DHT22;479;53.514;9.994;2022-10-15T14:33:42;17.70;99.90
981;DHT22;479;53.514;9.994;2022-10-15T14:36:23;17.60;99.90
981;DHT22;479;53.514;9.994;2022-10-15T14:38:51;17.70;99.90
981;DHT22;479;53.514;9.994;2022-10-15T14:41:28;17.70;99.90
981;DHT22;479;53.514;9.994;2022-10-15T14:44:00;17.70;99.90
981;DHT22;479;53.514;9.994;2022-10-15T14:46:36;17.80;99.90
981;DHT22;479;53.514;9.994;2022-10-15T14:49:19;17.80;99.90
981;DHT22;479;53.514;9.994;2022-10-15T14:51:53;17.70;99.90
981;DHT22;479;53.514;9.994;2022-10-15T14:54:24;17.80;99.90
981;DHT22;479;53.514;9.994;2022-10-15T14:56:54;17.70;99.90
981;DHT22;479;53.514;9.994;2022-10-15T14:59:27;17.70;99.90
981;DHT22;479;53.514;9.994;2022-10-15T15:01:57;17.70;99.90
981;DHT22;479;53.514;9.994;2022-10-15T15:04:36;17.70;99.90
981;DHT22;479;53.514;9.994;2022-10-15T15:07:11;17.70;99.90
981;DHT22;479;53.514;9.994;2022-10-15T15:09:38;17.70;99.90
981;DHT22;479;53.514;9.994;2022-10-15T15:12:20;17.60;99.90
981;DHT22;479;53.514;9.994;2022-10-15T15:14:56;17.50;99.90
981;DHT22;479;53.514;9.994;2022-10-15T15:17:29;17.50;99.90
981;DHT22;479;53.514;9.994;2022-10-15T15:20:00;17.50;99.90
981;DHT22;479;53.514;9.994;2022-10-15T15:22:30;17.60;99.90
981;DHT22;479;53.514;9.994;2022-10-15T15:25:14;17.60;99.90
981;DHT22;479;53.514;9.994;2022-10-15T15:27:43;17.60;99.90
981;DHT22;479;53.514;9.994;2022-10-15T15:30:15;17.60;99.90
981;DHT22;479;53.514;9.994;2022-10-15T15:32:42;17.60;99.90
981;DHT22;479;53.514;9.994;2022-10-15T15:35:21;17.50;99.90
981;DHT22;479;53.514;9.994;2022-10-15T15:37:57;17.40;99.90
981;DHT22;479;53.514;9.994;2022-10-15T15:40:24;17.30;99.90
981;DHT22;479;53.514;9.994;2022-10-15T15:42:53;17.10;99.90
981;DHT22;479;53.514;9.994;2022-10-15T15:45:23;17.00;99.90
981;DHT22;479;53.514;9.994;2022-10-15T15:47:50;16.80;99.90
981;DHT22;479;53.514;9.994;2022-10-15T15:50:19;16.70;99.90
981;DHT22;479;53.514;9.994;2022-10-15T15:52:46;16.60;99.90
981;DHT22;479;53.514;9.994;2022-10-15T15:55:15;16.50;99.90
981;DHT22;479;53.514;9.994;2022-10-15T15:57:42;16.60;99.90
981;DHT22;479;53.514;9.994;2022-10-15T16:00:18;16.50;99.90
981;DHT22;479;53.514;9.994;2022-10-15T16:02:45;16.50;99.90
981;DHT22;479;53.514;9.994;2022-10-15T16:05:14;16.50;99.90
981;DHT22;479;53.514;9.994;2022-10-15T16:07:42;16.50;99.90
981;DHT22;479;53.514;9.994;2022-10-15T16:10:09;16.50;99.90
981;DHT22;479;53.514;9.994;2022-10-15T16:12:38;16.50;99.90
981;DHT22;479;53.514;9.994;2022-10-15T16:15:07;16.50;99.90
981;DHT22;479;53.514;9.994;2022-10-15T16:17:34;16.50;99.90
981;DHT22;479;53.514;9.994;2022-10-15T16:20:01;16.50;99.90
981;DHT22;479;53.514;9.994;2022-10-15T16:22:29;16.50;99.90
981;DHT22;479;53.514;9.994;2022-10-15T16:24:56;16.50;99.90
981;DHT22;479;53.514;9.994;2022-10-15T16:27:23;16.50;99.90
981;DHT22;479;53.514;9.994;2022-10-15T16:29:52;16.50;99.90
981;DHT22;479;53.514;9.994;2022-10-15T16:32:19;16.40;99.90
981;DHT22;479;53.514;9.994;2022-10-15T16:34:46;16.40;99.90
981;DHT22;479;53.514;9.994;2022-10-15T16:37:13;16.40;99.90
981;DHT22;479;53.514;9.994;2022-10-15T16:39:40;16.30;99.90
981;DHT22;479;53.514;9.994;2022-10-15T16:42:07;16.40;99.90
981;DHT22;479;53.514;9.994;2022-10-15T16:44:34;16.30;99.90
981;DHT22;479;53.514;9.994;2022-10-15T16:47:03;16.40;99.90
981;DHT22;479;53.514;9.994;2022-10-15T16:49:34;16.30;99.90
981;DHT22;479;53.514;9.994;2022-10-15T16:52:02;16.30;99.90
981;DHT22;479;53.514;9.994;2022-10-15T16:54:29;16.40;99.90
981;DHT22;479;53.514;9.994;2022-10-15T16:57:26;16.40;99.90
981;DHT22;479;53.514;9.994;2022-10-15T17:00:12;16.30;99.90
981;DHT22;479;53.514;9.994;2022-10-15T17:02:42;16.30;99.90
981;DHT22;479;53.514;9.994;2022-10-15T17:05:09;16.20;99.90
981;DHT22;479;53.514;9.994;2022-10-15T17:07:40;16.20;99.90
981;DHT22;479;53.514;9.994;2022-10-15T17:10:07;16.20;99.90
981;DHT22;479;53.514;9.994;2022-10-15T17:12:35;16.10;99.90
981;DHT22;479;53.514;9.994;2022-10-15T17:15:03;16.10;99.90
981;DHT22;479;53.514;9.994;2022-10-15T17:17:32;16.10;99.90
981;DHT22;479;53.514;9.994;2022-10-15T17:20:01;16.20;99.90
981;DHT22;479;53.514;9.994;2022-10-15T17:22:28;16.10;99.90
981;DHT22;479;53.514;9.994;2022-10-15T17:24:54;16.10;99.90
981;DHT22;479;53.514;9.994;2022-10-15T17:27:21;16.00;99.90
981;DHT22;479;53.514;9.994;2022-10-15T17:29:49;16.00;99.90
981;DHT22;479;53.514;9.994;2022-10-15T17:32:16;16.00;99.90
981;DHT22;479;53.514;9.994;2022-10-15T17:34:42;15.90;99.90
981;DHT22;479;53.514;9.994;2022-10-15T17:37:13;15.80;99.90
981;DHT22;479;53.514;9.994;2022-10-15T17:39:40;15.90;99.90
981;DHT22;479;53.514;9.994;2022-10-15T17:42:07;15.90;99.90
981;DHT22;479;53.514;9.994;2022-10-15T17:44:38;15.80;99.90
981;DHT22;479;53.514;9.994;2022-10-15T17:47:05;15.80;99.90